Time;durP1;ratioP1;P1;durP2;ratioP2;P2;SDS_P1;SDS_P2;PMS_P1;PMS_P2;Temp;Humidity;BMP_temperature;BMP_pressure;BME280_temperature;BME280_humidity;BME280_pressure;Samples;Min_cycle;Max_cycle;Signal;HPM_P1;HPM_P2
2021/12/18 00:02:09;;;;;;;12.32;5.93;;;;;;;5.29;85.08;103742.59;5045266;28;20109;-52
2021/12/18 00:04:35;;;;;;;13.38;5.65;;;;;;;5.29;85.39;103734.63;5061196;28;20043;-53
2021/12/18 00:07:01;;;;;;;13.27;5.95;;;;;;;5.22;84.92;103730.03;5056724;28;20024;-53
2021/12/18 00:09:29;;;;;;;9.93;5.25;;;;;;;5.20;85.16;103722.16;5063050;28;20029;-54
2021/12/18 00:11:55;;;;;;;9.90;5.30;;;;;;;5.22;85.03;103719.41;5054635;28;20260;-53
2021/12/18 00:14:21;;;;;;;11.10;5.85;;;;;;;5.23;85.31;103721.06;5063554;28;20031;-51
2021/12/18 00:16:46;;;;;;;11.38;6.10;;;;;;;5.25;84.88;103735.91;5056320;28;20025;-52
2021/12/18 00:19:12;;;;;;;11.55;5.60;;;;;;;5.27;85.36;103727.78;5059322;28;20054;-52
2021/12/18 00:21:37;;;;;;;8.88;5.35;;;;;;;5.27;84.83;103725.13;5062688;28;20062;-53
2021/12/18 00:24:04;;;;;;;9.73;5.55;;;;;;;5.24;84.85;103717.44;5059586;28;20249;-50
2021/12/18 00:26:30;;;;;;;12.98;5.40;;;;;;;5.23;84.91;103718.41;5061802;28;20031;-51
2021/12/18 00:28:56;;;;;;;10.85;4.57;;;;;;;5.15;85.04;103713.78;5058341;28;20028;-53
2021/12/18 00:31:22;;;;;;;16.13;5.53;;;;;;;5.13;84.95;103705.94;5064404;28;20236;-50
2021/12/18 00:33:47;;;;;;;9.80;5.25;;;;;;;5.16;84.96;103708.31;5058847;28;20506;-50
2021/12/18 00:36:13;;;;;;;11.90;6.22;;;;;;;5.16;84.88;103710.97;5063209;28;21147;-53
2021/12/18 00:38:40;;;;;;;11.75;5.65;;;;;;;5.15;85.12;103709.31;5055717;28;20032;-54
2021/12/18 00:44:01;;;;;;;17.90;6.57;;;;;;;5.01;85.37;103706.22;5059500;28;20423;-53
2021/12/18 00:46:24;;;;;;;14.75;6.20;;;;;;;4.93;85.47;103696.28;5060746;28;20033;-52
2021/12/18 00:48:50;;;;;;;13.88;6.47;;;;;;;4.88;85.83;103698.53;5056710;28;20349;-52
2021/12/18 00:51:16;;;;;;;14.68;7.10;;;;;;;4.93;85.94;103693.63;5060345;28;20028;-52
2021/12/18 00:53:41;;;;;;;15.07;7.55;;;;;;;4.88;86.43;103689.72;5057820;28;20496;-53
2021/12/18 00:56:06;;;;;;;15.05;8.23;;;;;;;4.83;86.83;103692.78;5058213;28;20024;-54
2021/12/18 00:58:32;;;;;;;10.68;6.60;;;;;;;4.85;86.23;103704.13;5064630;28;20036;-51
2021/12/18 01:00:58;;;;;;;15.40;6.25;;;;;;;4.90;86.11;103709.03;5059462;28;20074;-52
2021/12/18 01:03:23;;;;;;;13.82;6.35;;;;;;;4.89;86.39;103710.84;5059264;28;20035;-52
2021/12/18 01:05:49;;;;;;;12.52;6.78;;;;;;;4.94;86.19;103697.13;5055074;28;20068;-53
2021/12/18 01:08:15;;;;;;;15.68;6.57;;;;;;;4.85;86.32;103699.66;5060250;28;20503;-49
2021/12/18 01:13:31;;;;;;;11.05;6.18;;;;;;;4.85;86.66;103701.47;5062111;28;20344;-53
2021/12/18 01:16:05;;;;;;;11.38;6.57;;;;;;;4.83;86.53;103698.94;5059256;28;20044;-52
2021/12/18 01:23:59;;;;;;;12.50;6.15;;;;;;;4.62;87.83;103715.94;5058744;28;20051;-53
2021/12/18 01:26:25;;;;;;;12.45;6.63;;;;;;;4.71;88.01;103712.50;5055173;28;20021;-52
2021/12/18 01:28:50;;;;;;;14.15;8.02;;;;;;;4.73;87.70;103718.50;5059594;28;20108;-51
2021/12/18 01:31:16;;;;;;;13.00;6.35;;;;;;;4.85;87.25;103728.03;5057649;28;20538;-53
2021/12/18 01:33:41;;;;;;;14.52;6.88;;;;;;;4.94;86.67;103727.19;5059575;28;20116;-52
2021/12/18 01:36:07;;;;;;;12.93;6.45;;;;;;;5.01;86.94;103730.97;5053049;28;20052;-52
2021/12/18 01:38:32;;;;;;;11.88;6.60;;;;;;;4.99;86.37;103726.78;5057437;28;20051;-52
2021/12/18 01:41:00;;;;;;;11.50;6.57;;;;;;;4.94;86.46;103721.88;5055053;28;20130;-50
2021/12/18 01:51:33;;;;;;;11.47;6.70;;;;;;;4.57;88.00;103712.88;5052738;28;20071;-50
2021/12/18 01:53:59;;;;;;;10.85;5.40;;;;;;;4.52;88.97;103710.63;5054356;28;20037;-50
2021/12/18 01:56:26;;;;;;;10.00;5.72;;;;;;;4.38;89.63;103703.88;5057266;28;20081;-51
2021/12/18 01:58:53;;;;;;;12.32;5.82;;;;;;;4.39;90.32;103704.72;5059617;28;20025;-51
2021/12/18 02:01:19;;;;;;;12.75;5.90;;;;;;;4.55;89.46;103705.88;5055856;28;20396;-50
2021/12/18 02:03:46;;;;;;;10.10;6.30;;;;;;;4.69;88.50;103711.78;5060178;28;20021;-51
2021/12/18 02:06:12;;;;;;;12.38;6.20;;;;;;;4.75;88.60;103712.06;5056623;28;20021;-49
2021/12/18 02:08:39;;;;;;;13.20;6.53;;;;;;;4.73;88.73;103711.38;5061646;28;20369;-53
2021/12/18 02:11:24;;;;;;;11.43;6.47;;;;;;;4.77;88.39;103719.91;5055767;28;20032;-51
2021/12/18 02:21:58;;;;;;;11.38;6.63;;;;;;;4.91;87.05;103716.00;5055405;28;20182;-53
2021/12/18 02:24:27;;;;;;;13.40;6.93;;;;;;;4.91;87.37;103716.84;5053941;28;20071;-54
2021/12/18 02:26:53;;;;;;;14.20;6.38;;;;;;;4.92;87.29;103715.03;5059653;28;20020;-50
2021/12/18 02:29:18;;;;;;;14.65;7.57;;;;;;;4.94;87.20;103713.06;5062116;28;20465;-53
2021/12/18 02:31:45;;;;;;;17.20;7.10;;;;;;;4.98;87.19;103709.16;5057653;28;20024;-55
2021/12/18 02:34:18;;;;;;;12.73;7.18;;;;;;;4.94;87.41;103711.25;5057780;28;20481;-52
2021/12/18 02:36:47;;;;;;;12.50;6.63;;;;;;;4.90;87.48;103712.50;5054241;28;20036;-53
2021/12/18 02:41:56;;;;;;;13.40;6.32;;;;;;;4.73;88.27;103706.06;5056817;28;20340;-52
2021/12/18 02:44:22;;;;;;;11.93;6.55;;;;;;;4.75;88.41;103701.44;5061433;28;20025;-52
2021/12/18 02:46:48;;;;;;;14.50;6.05;;;;;;;4.75;88.24;103704.09;5063657;28;20024;-53
2021/12/18 02:49:15;;;;;;;11.63;6.13;;;;;;;4.58;88.70;103703.94;5058436;28;20473;-50
2021/12/18 02:51:42;;;;;;;13.23;6.45;;;;;;;4.45;89.28;103702.34;5059716;28;20024;-53
2021/12/18 02:54:07;;;;;;;13.05;6.82;;;;;;;4.27;90.53;103701.31;5063636;28;20396;-53
2021/12/18 02:56:33;;;;;;;13.60;6.97;;;;;;;4.40;89.97;103701.91;5050447;28;20028;-53
2021/12/18 02:59:08;;;;;;;13.38;7.95;;;;;;;4.48;89.92;103704.72;5064235;28;20123;-53
2021/12/18 03:01:35;;;;;;;13.85;6.88;;;;;;;4.59;89.67;103694.97;5056676;28;20504;-50
2021/12/18 03:04:11;;;;;;;13.70;6.93;;;;;;;4.63;89.52;103691.91;5061117;28;20036;-51
2021/12/18 03:06:41;;;;;;;13.93;7.07;;;;;;;4.68;88.77;103688.88;5061293;28;20151;-53
2021/12/18 03:25:29;;;;;;;14.02;7.10;;;;;;;4.59;88.98;103661.28;5032150;28;20044;-52
2021/12/18 03:27:58;;;;;;;14.02;6.90;;;;;;;4.54;89.26;103656.41;5065369;28;20493;-50
2021/12/18 03:30:24;;;;;;;15.75;6.57;;;;;;;4.55;89.36;103654.59;5062619;28;20270;-49
2021/12/18 03:32:49;;;;;;;14.98;6.90;;;;;;;4.56;89.29;103656.25;5064563;28;20464;-50
2021/12/18 03:35:16;;;;;;;13.35;7.28;;;;;;;4.33;90.26;103660.97;5062459;28;20453;-52
2021/12/18 03:37:42;;;;;;;14.63;6.75;;;;;;;4.36;90.38;103662.50;5061949;28;20020;-52
2021/12/18 03:40:11;;;;;;;12.75;6.32;;;;;;;4.32;91.07;103659.28;5060521;28;20476;-53
2021/12/18 03:42:37;;;;;;;14.35;6.25;;;;;;;4.29;91.22;103658.69;5065777;28;20103;-50
2021/12/18 03:45:05;;;;;;;15.45;7.40;;;;;;;4.37;90.90;103659.72;5060132;28;20032;-53
2021/12/18 03:47:31;;;;;;;15.45;7.60;;;;;;;4.42;90.60;103661.97;5062793;28;20115;-51
2021/12/18 03:49:56;;;;;;;14.13;6.85;;;;;;;4.49;90.49;103665.78;5062609;28;20232;-53
2021/12/18 03:52:22;;;;;;;11.20;6.10;;;;;;;4.55;89.87;103662.56;5057350;28;20053;-50
2021/12/18 03:54:48;;;;;;;12.02;6.53;;;;;;;4.59;89.85;103665.78;5063941;28;20028;-52
2021/12/18 03:57:13;;;;;;;13.50;7.15;;;;;;;4.61;89.93;103674.44;5060538;28;20032;-52
2021/12/18 03:59:39;;;;;;;12.70;6.97;;;;;;;4.66;89.28;103670.38;5066089;28;20032;-54
2021/12/18 04:02:04;;;;;;;12.38;6.65;;;;;;;4.71;89.20;103659.38;5061842;28;20035;-50
2021/12/18 04:04:30;;;;;;;10.65;5.82;;;;;;;4.76;88.84;103665.09;5060605;28;20309;-53
2021/12/18 04:06:56;;;;;;;12.43;6.53;;;;;;;4.82;88.08;103667.19;5058149;28;20055;-52
2021/12/18 04:09:21;;;;;;;12.43;6.40;;;;;;;4.60;88.93;103675.41;5039933;28;20016;-51
2021/12/18 04:11:47;;;;;;;12.40;5.80;;;;;;;4.59;89.28;103669.25;5044705;28;20267;-49
2021/12/18 04:14:17;;;;;;;12.63;6.13;;;;;;;4.55;89.10;103665.22;5057796;28;20028;-53
2021/12/18 04:16:43;;;;;;;11.63;6.05;;;;;;;4.51;89.44;103664.66;5055589;28;20617;-54
2021/12/18 04:19:08;;;;;;;10.13;6.00;;;;;;;4.57;89.43;103659.75;5061985;28;20293;-54
2021/12/18 04:21:34;;;;;;;14.20;6.90;;;;;;;4.54;89.27;103661.72;5062366;28;20056;-51
2021/12/18 04:24:02;;;;;;;10.73;5.90;;;;;;;4.61;89.25;103650.53;5061080;28;20047;-54
2021/12/18 04:26:27;;;;;;;14.63;7.80;;;;;;;4.47;89.87;103651.75;5056333;28;20054;-49
2021/12/18 04:28:53;;;;;;;13.55;7.03;;;;;;;4.41;90.45;103645.19;5065263;28;20024;-54
2021/12/18 04:31:18;;;;;;;11.80;5.97;;;;;;;4.47;90.43;103649.09;5058964;28;20115;-52
2021/12/18 04:33:44;;;;;;;11.02;5.97;;;;;;;4.37;90.87;103648.25;5063834;28;20465;-52
2021/12/18 04:36:09;;;;;;;12.32;6.03;;;;;;;4.29;91.36;103645.44;5059259;28;20099;-53
2021/12/18 04:38:35;;;;;;;9.73;5.97;;;;;;;4.15;92.22;103647.50;5061471;28;20029;-53
2021/12/18 04:41:02;;;;;;;10.15;5.63;;;;;;;4.25;92.04;103645.72;5038372;28;20032;-49
2021/12/18 04:43:27;;;;;;;10.23;5.75;;;;;;;4.27;91.96;103652.69;5061695;28;20123;-50
2021/12/18 04:45:53;;;;;;;12.38;5.78;;;;;;;4.26;92.32;103651.84;5058923;28;20552;-50
2021/12/18 04:48:18;;;;;;;10.65;5.43;;;;;;;4.31;91.82;103647.00;5060573;28;20020;-53
2021/12/18 04:50:44;;;;;;;10.70;5.03;;;;;;;4.14;92.87;103642.34;5030523;28;20121;-49
2021/12/18 04:53:10;;;;;;;7.15;4.53;;;;;;;4.15;93.27;103633.41;5052768;28;20054;-52
2021/12/18 04:55:36;;;;;;;6.03;4.13;;;;;;;4.17;92.92;103631.44;5056436;28;20449;-53
2021/12/18 04:58:02;;;;;;;8.38;4.30;;;;;;;4.22;92.89;103635.38;5063583;28;20533;-52
2021/12/18 05:00:37;;;;;;;5.97;3.85;;;;;;;4.29;92.45;103633.00;5059377;28;20267;-53
2021/12/18 05:03:06;;;;;;;6.82;4.25;;;;;;;4.31;92.79;103628.41;5063486;28;20404;-51
2021/12/18 05:05:32;;;;;;;8.40;4.35;;;;;;;4.31;92.44;103628.41;5053585;28;20476;-50
2021/12/18 05:07:58;;;;;;;5.32;3.38;;;;;;;4.27;92.93;103624.34;5063253;28;20082;-52
2021/12/18 05:10:23;;;;;;;7.22;4.13;;;;;;;4.34;92.28;103622.00;5058620;28;20091;-51
2021/12/18 05:12:49;;;;;;;7.38;3.53;;;;;;;4.32;92.60;103619.47;5062056;28;20020;-50
2021/12/18 05:15:15;;;;;;;6.47;3.15;;;;;;;4.30;92.98;103618.75;5040964;28;20028;-54
2021/12/18 05:17:40;;;;;;;6.80;3.50;;;;;;;4.39;92.74;103625.06;5061362;28;20374;-50
2021/12/18 05:20:07;;;;;;;6.53;3.75;;;;;;;4.40;92.61;103616.97;5056652;28;20108;-50
2021/12/18 05:22:32;;;;;;;5.22;2.95;;;;;;;4.39;92.87;103614.44;5057047;28;20025;-53
2021/12/18 05:24:58;;;;;;;5.00;3.05;;;;;;;4.50;92.40;103617.84;5060461;28;20786;-54
2021/12/18 05:27:23;;;;;;;4.72;2.72;;;;;;;4.53;92.52;103622.03;5057549;28;20024;-52
2021/12/18 05:29:49;;;;;;;6.35;2.83;;;;;;;4.59;92.18;103615.31;5064576;28;20016;-51
2021/12/18 05:32:14;;;;;;;4.95;2.83;;;;;;;4.56;92.78;103627.06;5060213;28;20032;-52
2021/12/18 05:34:40;;;;;;;5.32;2.72;;;;;;;4.60;92.77;103619.66;5045719;28;20244;-52
2021/12/18 05:37:19;;;;;;;4.10;2.67;;;;;;;4.63;92.50;103616.72;5059328;28;20020;-51
2021/12/18 05:39:46;;;;;;;4.00;2.47;;;;;;;4.67;92.22;103618.97;5056821;28;20028;-51
2021/12/18 05:42:12;;;;;;;4.15;2.30;;;;;;;4.62;93.08;103613.22;5061110;28;20032;-52
2021/12/18 05:44:38;;;;;;;3.92;2.55;;;;;;;4.61;93.63;103616.00;5060247;28;20330;-53
2021/12/18 05:47:04;;;;;;;4.82;2.42;;;;;;;4.65;92.85;103612.94;5059013;28;20025;-49
2021/12/18 05:49:29;;;;;;;5.07;2.55;;;;;;;4.71;92.50;103604.44;5060167;28;20033;-50
2021/12/18 05:51:55;;;;;;;4.10;2.78;;;;;;;4.75;92.77;103603.16;5058345;28;20028;-52
2021/12/18 05:54:20;;;;;;;3.47;2.20;;;;;;;4.80;92.43;103600.09;5061566;28;20060;-50
2021/12/18 05:56:46;;;;;;;4.07;2.20;;;;;;;4.71;92.84;103595.63;5056001;28;20025;-53
2021/12/18 05:59:11;;;;;;;3.97;2.20;;;;;;;4.70;92.95;103592.13;5059885;28;20028;-52
2021/12/18 06:01:37;;;;;;;3.28;1.80;;;;;;;4.71;93.51;103587.66;5063715;28;20024;-54
2021/12/18 06:04:03;;;;;;;3.67;1.92;;;;;;;4.73;93.76;103585.69;5046448;28;20020;-53
2021/12/18 06:06:30;;;;;;;4.65;2.17;;;;;;;4.72;94.00;103582.19;5058853;28;20449;-50
2021/12/18 06:08:55;;;;;;;2.30;1.48;;;;;;;4.65;95.14;103586.38;5056582;28;20036;-53
2021/12/18 06:11:22;;;;;;;2.67;1.80;;;;;;;4.63;95.97;103580.38;5059561;28;20420;-50
2021/12/18 06:13:49;;;;;;;2.85;1.75;;;;;;;4.74;94.69;103587.38;5059549;28;20025;-53
2021/12/18 06:16:15;;;;;;;4.72;1.95;;;;;;;4.75;95.19;103584.56;5059100;28;20058;-51
2021/12/18 06:18:47;;;;;;;3.47;2.30;;;;;;;4.87;93.92;103577.31;5061602;28;20102;-53
2021/12/18 06:21:14;;;;;;;3.72;2.60;;;;;;;4.89;93.93;103580.66;5063773;28;20058;-53
2021/12/18 06:23:44;;;;;;;3.60;1.85;;;;;;;4.80;94.52;103574.34;5061338;28;20028;-52
2021/12/18 06:26:10;;;;;;;2.58;1.70;;;;;;;4.87;93.74;103577.31;5067498;28;20099;-53
2021/12/18 06:28:36;;;;;;;2.72;1.40;;;;;;;4.85;94.45;103569.47;5065921;28;20111;-53
2021/12/18 06:31:02;;;;;;;5.53;1.73;;;;;;;4.83;95.26;103565.25;5062450;28;20477;-54
2021/12/18 06:33:28;;;;;;;3.97;1.52;;;;;;;4.81;95.10;103562.75;5063331;28;20090;-50
2021/12/18 06:35:53;;;;;;;2.80;1.40;;;;;;;4.76;95.81;103559.69;5062336;28;20479;-50
2021/12/18 06:38:19;;;;;;;1.98;1.02;;;;;;;4.75;96.46;103563.31;5063646;28;20028;-53
2021/12/18 06:40:44;;;;;;;3.42;1.38;;;;;;;4.76;96.93;103554.38;5056869;28;20028;-51
2021/12/18 06:43:10;;;;;;;2.92;1.13;;;;;;;4.74;96.60;103555.50;5063395;28;20111;-52
2021/12/18 06:45:35;;;;;;;2.33;1.30;;;;;;;4.78;96.50;103559.53;5063027;28;20024;-52
2021/12/18 06:48:01;;;;;;;2.60;1.10;;;;;;;4.86;95.44;103557.03;5063635;28;20024;-53
2021/12/18 06:50:27;;;;;;;1.35;1.00;;;;;;;4.83;95.73;103549.31;5059961;28;20483;-51
2021/12/18 06:52:53;;;;;;;2.33;1.00;;;;;;;4.82;96.42;103537.03;5065517;28;20039;-50
2021/12/18 06:55:18;;;;;;;1.38;0.98;;;;;;;4.79;96.43;103545.28;5059346;28;20488;-50
2021/12/18 06:57:44;;;;;;;2.20;0.70;;;;;;;4.83;96.42;103541.34;5061388;28;20496;-52
2021/12/18 07:00:12;;;;;;;1.08;0.77;;;;;;;4.79;96.41;103537.31;5066324;28;20029;-52
2021/12/18 07:02:38;;;;;;;1.15;0.95;;;;;;;4.77;97.06;103539.28;5064937;28;20028;-51
2021/12/18 07:05:04;;;;;;;1.30;1.15;;;;;;;4.76;97.25;103545.56;5064190;28;20031;-50
2021/12/18 07:07:29;;;;;;;2.22;0.80;;;;;;;4.77;97.06;103534.81;5060095;28;20172;-52
2021/12/18 07:09:55;;;;;;;1.40;1.00;;;;;;;4.83;96.14;103539.53;5062414;28;20020;-53
2021/12/18 07:12:20;;;;;;;0.77;0.73;;;;;;;4.88;96.12;103531.16;5058856;28;20282;-50
2021/12/18 07:14:46;;;;;;;2.28;1.20;;;;;;;4.87;96.01;103528.66;5066363;28;20028;-52
2021/12/18 07:17:12;;;;;;;1.65;1.00;;;;;;;4.85;96.23;103529.63;5062241;28;20021;-49
2021/12/18 07:19:37;;;;;;;0.98;0.85;;;;;;;4.87;96.39;103524.16;5041455;28;20036;-53
2021/12/18 07:22:03;;;;;;;2.33;0.90;;;;;;;4.88;96.58;103520.53;5056252;28;20020;-49
2021/12/18 07:24:29;;;;;;;1.63;0.98;;;;;;;4.94;96.01;103522.59;5065588;28;20074;-51
2021/12/18 07:26:55;;;;;;;1.80;1.00;;;;;;;4.92;96.48;103513.09;5059511;28;20035;-53
2021/12/18 07:29:21;;;;;;;0.82;0.75;;;;;;;4.89;96.74;103516.91;5049991;28;20374;-49
2021/12/18 07:31:46;;;;;;;1.70;1.20;;;;;;;4.82;97.83;103510.47;5061652;28;20508;-51
2021/12/18 07:34:12;;;;;;;0.50;0.50;;;;;;;4.90;96.53;103526.53;5061747;28;20048;-52
2021/12/18 07:36:37;;;;;;;0.80;0.70;;;;;;;4.84;97.23;103527.09;5059293;28;20056;-54
2021/12/18 07:39:04;;;;;;;1.50;0.70;;;;;;;4.81;97.22;103530.88;5061739;28;20025;-49
2021/12/18 07:41:29;;;;;;;0.85;0.60;;;;;;;4.75;98.06;103526.13;5059160;28;20040;-52
2021/12/18 07:43:55;;;;;;;1.65;0.80;;;;;;;4.72;97.85;103525.59;5059911;28;20079;-51
2021/12/18 07:46:21;;;;;;;1.23;0.70;;;;;;;4.72;98.22;103521.13;5064460;28;20032;-49
2021/12/18 07:48:46;;;;;;;0.70;0.52;;;;;;;4.67;98.30;103525.16;5061480;28;20035;-52
2021/12/18 07:51:12;;;;;;;0.73;0.60;;;;;;;4.66;98.46;103532.28;5058683;28;20016;-51
2021/12/18 07:53:38;;;;;;;2.45;0.77;;;;;;;4.68;98.27;103542.78;5061148;28;20028;-52
2021/12/18 07:56:04;;;;;;;1.00;0.70;;;;;;;4.65;97.75;103530.59;5060799;28;20116;-52
2021/12/18 07:58:32;;;;;;;0.85;0.73;;;;;;;4.59;98.39;103539.16;5060167;28;20039;-52
2021/12/18 08:00:58;;;;;;;1.05;0.77;;;;;;;4.74;97.78;103548.38;5046143;28;20060;-52
2021/12/18 08:03:23;;;;;;;0.90;0.70;;;;;;;4.75;97.56;103543.91;5064770;28;20076;-53
2021/12/18 08:05:49;;;;;;;0.95;0.80;;;;;;;4.79;97.11;103543.47;5059164;28;20051;-53
2021/12/18 08:08:15;;;;;;;0.88;0.80;;;;;;;4.82;97.11;103537.84;5062533;28;20035;-52
2021/12/18 08:10:41;;;;;;;1.10;0.60;;;;;;;4.86;96.32;103541.09;5057480;28;20020;-52
2021/12/18 08:13:06;;;;;;;2.22;0.90;;;;;;;4.82;97.12;103542.34;5065773;28;20035;-53
2021/12/18 08:15:32;;;;;;;1.05;0.90;;;;;;;4.84;97.03;103546.53;5057141;28;20024;-53
2021/12/18 08:17:58;;;;;;;2.40;1.05;;;;;;;4.89;96.35;103540.81;5062413;28;20032;-53
2021/12/18 08:20:25;;;;;;;1.45;0.98;;;;;;;4.92;96.46;103540.50;5064648;28;20478;-53
2021/12/18 08:22:51;;;;;;;2.33;0.93;;;;;;;4.90;96.53;103539.00;5061701;28;20108;-50
2021/12/18 08:25:16;;;;;;;1.50;1.00;;;;;;;4.93;96.10;103534.22;5060744;28;20115;-53
2021/12/18 08:27:42;;;;;;;2.10;1.00;;;;;;;4.85;97.27;103537.59;5063110;28;20048;-53
2021/12/18 08:30:08;;;;;;;2.33;0.60;;;;;;;4.89;97.06;103537.31;5061993;28;20424;-53
2021/12/18 08:32:33;;;;;;;1.48;0.90;;;;;;;4.96;96.72;103528.63;5060307;28;20033;-51
2021/12/18 08:34:59;;;;;;;1.05;0.80;;;;;;;4.93;97.20;103528.91;5060452;28;20038;-53
2021/12/18 08:37:24;;;;;;;2.67;1.50;;;;;;;4.85;97.33;103531.44;5063162;28;20123;-53
2021/12/18 08:39:50;;;;;;;2.25;1.33;;;;;;;4.84;97.92;103527.09;5059055;28;20021;-49
2021/12/18 08:42:16;;;;;;;2.08;1.25;;;;;;;4.71;98.83;103523.91;5060480;28;20072;-52
2021/12/18 08:44:41;;;;;;;2.80;1.40;;;;;;;4.84;98.17;103527.94;5058401;28;20484;-52
2021/12/18 08:47:07;;;;;;;2.25;1.30;;;;;;;4.88;97.80;103530.31;5059116;28;20047;-52
2021/12/18 08:49:33;;;;;;;2.15;1.33;;;;;;;4.85;97.61;103531.44;5046049;28;20025;-53
2021/12/18 08:51:58;;;;;;;2.05;0.90;;;;;;;4.87;97.86;103531.31;5043251;28;20545;-50
2021/12/18 08:54:25;;;;;;;0.70;0.60;;;;;;;4.91;97.81;103522.91;5062819;28;20024;-51
2021/12/18 08:56:51;;;;;;;1.33;0.80;;;;;;;4.92;97.87;103521.09;5059877;28;20063;-52
2021/12/18 08:59:16;;;;;;;1.15;0.90;;;;;;;4.87;98.50;103526.81;5061440;28;20484;-51
2021/12/18 09:01:42;;;;;;;2.17;1.05;;;;;;;4.99;97.71;103519.50;5055711;28;20103;-52
2021/12/18 09:04:07;;;;;;;1.98;0.80;;;;;;;4.96;97.66;103527.78;5059555;28;20047;-53
2021/12/18 09:06:33;;;;;;;1.15;0.80;;;;;;;4.90;97.65;103529.19;5034295;28;20494;-50
2021/12/18 09:08:59;;;;;;;0.63;0.52;;;;;;;4.87;97.43;103524.16;5057618;28;20348;-53
2021/12/18 09:11:24;;;;;;;2.55;1.00;;;;;;;4.95;96.97;103524.28;5059190;28;20020;-52
2021/12/18 09:13:50;;;;;;;1.65;0.70;;;;;;;4.98;96.82;103518.69;5060187;28;20292;-49
2021/12/18 09:16:16;;;;;;;0.93;0.60;;;;;;;4.99;96.96;103515.03;5059013;28;20051;-50
2021/12/18 09:18:42;;;;;;;1.35;1.00;;;;;;;4.95;97.22;103515.47;5061652;28;20230;-51
2021/12/18 09:21:08;;;;;;;0.93;0.80;;;;;;;5.00;96.89;103516.72;5057732;28;20025;-54
2021/12/18 09:23:33;;;;;;;1.33;0.77;;;;;;;5.02;96.72;103508.59;5065466;28;20029;-52
2021/12/18 09:25:59;;;;;;;1.08;0.77;;;;;;;4.97;97.18;103509.03;5059789;28;20521;-53
2021/12/18 09:28:25;;;;;;;1.13;0.63;;;;;;;4.89;97.96;103503.63;5064533;28;20024;-52
2021/12/18 09:30:51;;;;;;;1.05;0.80;;;;;;;4.87;97.89;103494.94;5061677;28;20033;-53
2021/12/18 09:33:18;;;;;;;1.98;1.00;;;;;;;4.91;97.84;103495.50;5044601;28;20024;-52
2021/12/18 09:35:45;;;;;;;2.05;1.08;;;;;;;4.87;98.14;103486.97;5059978;28;20412;-49
2021/12/18 09:38:11;;;;;;;1.52;1.00;;;;;;;4.83;98.03;103485.56;5060535;28;20047;-53
2021/12/18 09:40:38;;;;;;;1.17;1.05;;;;;;;4.84;98.58;103481.94;5062615;28;20032;-53
2021/12/18 09:43:03;;;;;;;2.00;1.10;;;;;;;4.82;98.93;103490.03;5049185;28;20136;-52
2021/12/18 09:45:29;;;;;;;1.73;0.90;;;;;;;4.88;98.64;103477.19;5056998;28;20461;-52
2021/12/18 09:47:55;;;;;;;2.38;1.30;;;;;;;4.90;98.89;103481.38;5062844;28;20038;-50
2021/12/18 09:50:24;;;;;;;2.92;1.52;;;;;;;4.79;99.37;103471.75;5057425;28;20021;-51
2021/12/18 09:52:51;;;;;;;3.70;2.55;;;;;;;4.87;99.05;103476.34;5061250;28;20118;-53
2021/12/18 09:55:18;;;;;;;2.95;1.92;;;;;;;4.91;99.07;103456.47;5059706;28;20033;-53
2021/12/18 09:57:44;;;;;;;3.20;1.38;;;;;;;4.82;98.77;103462.66;5061605;28;20024;-52
2021/12/18 10:00:16;;;;;;;1.42;1.20;;;;;;;4.88;98.59;103458.59;5060713;28;20024;-53
2021/12/18 10:02:43;;;;;;;2.25;1.00;;;;;;;4.85;98.60;103457.91;5044611;28;20397;-52
2021/12/18 10:05:25;;;;;;;1.98;1.00;;;;;;;4.82;98.44;103458.16;5061148;28;20408;-52
2021/12/18 10:08:17;;;;;;;1.08;0.75;;;;;;;4.82;97.92;103454.69;5062612;28;20453;-49
2021/12/18 10:11:09;;;;;;;1.13;0.80;;;;;;;4.89;97.99;103452.31;5057067;28;20032;-53
2021/12/18 10:13:58;;;;;;;1.30;0.80;;;;;;;4.84;97.97;103442.09;5060876;28;20016;-49
2021/12/18 10:16:27;;;;;;;1.08;0.60;;;;;;;4.89;97.66;103439.84;5057551;28;20431;-53
2021/12/18 10:18:53;;;;;;;0.82;0.63;;;;;;;4.98;97.00;103444.28;5061434;28;20373;-52
2021/12/18 10:21:24;;;;;;;1.67;1.08;;;;;;;5.00;96.83;103434.34;5057848;28;20078;-50
2021/12/18 10:23:52;;;;;;;1.88;1.30;;;;;;;5.00;96.97;103431.69;5043816;28;20020;-53
2021/12/18 10:26:38;;;;;;;1.80;1.10;;;;;;;4.94;97.29;103431.44;5059816;28;20086;-53
2021/12/18 10:29:30;;;;;;;1.88;0.68;;;;;;;4.88;97.78;103432.88;5063787;28;20032;-52
2021/12/18 10:32:03;;;;;;;2.50;0.88;;;;;;;4.92;97.85;103430.75;5057542;28;20021;-49
2021/12/18 10:34:29;;;;;;;1.92;1.08;;;;;;;5.03;97.77;103435.91;5064658;28;20111;-53
2021/12/18 10:37:14;;;;;;;0.73;0.73;;;;;;;5.12;97.19;103432.34;5061934;28;20162;-53
2021/12/18 10:39:54;;;;;;;3.03;1.00;;;;;;;5.13;96.80;103428.69;5061701;28;20025;-54
2021/12/18 10:42:34;;;;;;;3.50;1.30;;;;;;;5.15;96.41;103421.41;5062171;28;20035;-52
2021/12/18 10:45:15;;;;;;;2.25;1.45;;;;;;;5.06;96.58;103417.84;5061889;28;20068;-53
2021/12/18 10:47:45;;;;;;;2.15;1.17;;;;;;;5.02;97.13;103415.59;5061738;28;20023;-51
2021/12/18 10:50:24;;;;;;;2.65;1.30;;;;;;;5.11;97.06;103409.41;5058761;28;20017;-51
2021/12/18 10:52:58;;;;;;;2.80;1.35;;;;;;;5.21;96.49;103410.22;5062273;28;20028;-50
2021/12/18 10:55:28;;;;;;;3.65;2.15;;;;;;;5.20;96.69;103403.19;5061575;28;20488;-52
2021/12/18 10:57:55;;;;;;;2.33;1.40;;;;;;;5.27;96.21;103395.50;5062913;28;20028;-49
2021/12/18 11:00:36;;;;;;;2.63;1.60;;;;;;;5.11;96.29;103399.63;5057936;28;20216;-52
2021/12/18 11:03:21;;;;;;;1.85;1.13;;;;;;;5.15;96.71;103395.69;5060169;28;20644;-50
2021/12/18 11:06:20;;;;;;;1.40;0.95;;;;;;;5.18;96.26;103383.06;5061357;28;20059;-52
2021/12/18 11:09:09;;;;;;;2.05;1.30;;;;;;;5.32;96.35;103383.41;5056836;28;20032;-51
2021/12/18 11:14:17;;;;;;;1.60;1.10;;;;;;;5.21;97.34;103383.63;5062186;28;20043;-51
2021/12/18 11:16:54;;;;;;;4.13;1.60;;;;;;;5.29;97.12;103380.22;5063732;28;20017;-51
2021/12/18 11:19:23;;;;;;;1.60;0.88;;;;;;;5.27;97.10;103376.88;5066862;28;20035;-50
2021/12/18 11:21:53;;;;;;;1.05;0.90;;;;;;;5.23;97.44;103375.50;5065352;28;20058;-51
2021/12/18 11:24:21;;;;;;;1.15;0.90;;;;;;;5.17;98.27;103376.91;5063386;28;20364;-53
2021/12/18 11:27:00;;;;;;;2.58;0.70;;;;;;;5.11;98.78;103372.22;5058809;28;20033;-53
2021/12/18 11:29:59;;;;;;;0.90;0.70;;;;;;;5.11;99.03;103362.41;5059369;28;20048;-54
2021/12/18 11:32:28;;;;;;;0.57;0.55;;;;;;;5.10;99.58;103350.13;5058871;28;20096;-52
2021/12/18 11:34:56;;;;;;;0.77;0.70;;;;;;;5.10;99.80;103355.44;5056604;28;20021;-52
2021/12/18 11:37:24;;;;;;;0.60;0.60;;;;;;;5.18;99.26;103349.34;5061643;28;20024;-51
2021/12/18 11:39:54;;;;;;;1.55;0.52;;;;;;;5.20;98.76;103342.06;5062069;28;20104;-49
2021/12/18 11:42:31;;;;;;;1.58;0.77;;;;;;;5.18;98.46;103329.91;5064745;28;20036;-54
2021/12/18 11:44:58;;;;;;;1.40;0.50;;;;;;;5.18;98.80;103335.22;5066741;28;20121;-53
2021/12/18 11:47:32;;;;;;;1.48;0.60;;;;;;;5.16;98.45;103330.91;5039360;28;20028;-52
2021/12/18 11:50:02;;;;;;;1.05;0.60;;;;;;;5.18;98.34;103327.25;5067051;28;20111;-54
2021/12/18 11:52:29;;;;;;;0.98;0.60;;;;;;;5.23;98.26;103323.19;5060453;28;20040;-51
2021/12/18 11:55:00;;;;;;;0.40;0.40;;;;;;;5.25;97.93;103315.91;5064467;28;20305;-52
2021/12/18 11:57:37;;;;;;;0.65;0.43;;;;;;;5.35;97.25;103308.69;5065788;28;20177;-53
2021/12/18 12:00:27;;;;;;;0.57;0.50;;;;;;;5.33;96.98;103309.81;5061792;28;20076;-52
2021/12/18 12:02:55;;;;;;;0.82;0.43;;;;;;;5.22;96.75;103307.41;5061842;28;20047;-53
2021/12/18 12:05:37;;;;;;;0.82;0.40;;;;;;;5.25;96.50;103309.75;5064779;28;20103;-52
2021/12/18 12:08:17;;;;;;;0.47;0.47;;;;;;;5.21;96.89;103303.91;5050948;28;20517;-52
2021/12/18 12:11:15;;;;;;;1.23;0.32;;;;;;;5.22;96.95;103310.88;5062743;28;20058;-52
2021/12/18 12:13:57;;;;;;;0.40;0.40;;;;;;;5.19;97.56;103291.72;5063707;28;20024;-54
2021/12/18 12:16:45;;;;;;;0.30;0.30;;;;;;;5.23;97.55;103293.13;5063680;28;20024;-53
2021/12/18 12:19:13;;;;;;;2.15;0.80;;;;;;;5.32;97.00;103284.22;5065140;28;20024;-52
2021/12/18 12:21:42;;;;;;;2.58;0.50;;;;;;;5.22;97.25;103278.16;5054436;28;20025;-53
2021/12/18 12:24:08;;;;;;;2.20;0.40;;;;;;;5.33;96.38;103276.09;5060558;28;20039;-53
2021/12/18 12:26:35;;;;;;;0.90;0.50;;;;;;;5.28;96.33;103277.53;5063431;28;20103;-52